sensor_id;sensor_type;location;lat;lon;timestamp;temperature;humidity
34492;DHT22;20737;49.908;8.126;2022-11-25T00:00:32;1.50;99.90
34492;DHT22;20737;49.908;8.126;2022-11-25T00:02:59;1.60;99.90
34492;DHT22;20737;49.908;8.126;2022-11-25T00:05:26;1.80;99.90
34492;DHT22;20737;49.908;8.126;2022-11-25T00:07:53;1.90;99.90
34492;DHT22;20737;49.908;8.126;2022-11-25T00:10:19;1.90;99.90
34492;DHT22;20737;49.908;8.126;2022-11-25T00:12:46;2.00;99.90
34492;DHT22;20737;49.908;8.126;2022-11-25T00:15:14;2.00;99.90
34492;DHT22;20737;49.908;8.126;2022-11-25T00:17:43;2.10;99.90
34492;DHT22;20737;49.908;8.126;2022-11-25T00:20:10;2.10;99.90
34492;DHT22;20737;49.908;8.126;2022-11-25T00:22:37;2.10;99.90
34492;DHT22;20737;49.908;8.126;2022-11-25T00:25:04;2.10;99.90
34492;DHT22;20737;49.908;8.126;2022-11-25T00:27:31;2.00;99.90
34492;DHT22;20737;49.908;8.126;2022-11-25T00:29:58;2.00;99.90
34492;DHT22;20737;49.908;8.126;2022-11-25T00:32:26;1.90;99.90
34492;DHT22;20737;49.908;8.126;2022-11-25T00:34:52;1.90;99.90
34492;DHT22;20737;49.908;8.126;2022-11-25T00:37:19;1.90;99.90
34492;DHT22;20737;49.908;8.126;2022-11-25T00:39:46;1.80;99.90
34492;DHT22;20737;49.908;8.126;2022-11-25T00:42:12;1.70;99.90
34492;DHT22;20737;49.908;8.126;2022-11-25T00:44:53;1.70;99.90
34492;DHT22;20737;49.908;8.126;2022-11-25T00:47:20;1.70;99.90
34492;DHT22;20737;49.908;8.126;2022-11-25T00:49:50;1.70;99.90
34492;DHT22;20737;49.908;8.126;2022-11-25T00:52:19;1.60;99.90
34492;DHT22;20737;49.908;8.126;2022-11-25T00:54:47;1.60;99.90
34492;DHT22;20737;49.908;8.126;2022-11-25T00:57:16;1.50;99.90
34492;DHT22;20737;49.908;8.126;2022-11-25T00:59:43;1.50;99.90
34492;DHT22;20737;49.908;8.126;2022-11-25T01:02:10;1.50;99.90
34492;DHT22;20737;49.908;8.126;2022-11-25T01:04:37;1.50;99.90
34492;DHT22;20737;49.908;8.126;2022-11-25T01:07:06;1.60;99.90
34492;DHT22;20737;49.908;8.126;2022-11-25T01:09:33;1.60;99.90
34492;DHT22;20737;49.908;8.126;2022-11-25T01:12:00;1.60;99.90
34492;DHT22;20737;49.908;8.126;2022-11-25T01:14:26;1.50;99.90
34492;DHT22;20737;49.908;8.126;2022-11-25T01:16:55;1.50;99.90
34492;DHT22;20737;49.908;8.126;2022-11-25T01:19:22;1.40;99.90
34492;DHT22;20737;49.908;8.126;2022-11-25T01:21:48;1.40;99.90
34492;DHT22;20737;49.908;8.126;2022-11-25T01:24:17;1.40;99.90
34492;DHT22;20737;49.908;8.126;2022-11-25T01:26:44;1.50;99.90
34492;DHT22;20737;49.908;8.126;2022-11-25T01:29:12;1.40;99.90
34492;DHT22;20737;49.908;8.126;2022-11-25T01:31:40;1.50;99.90
34492;DHT22;20737;49.908;8.126;2022-11-25T01:34:11;1.40;99.90
34492;DHT22;20737;49.908;8.126;2022-11-25T01:36:38;1.40;99.90
34492;DHT22;20737;49.908;8.126;2022-11-25T01:39:06;1.30;99.90
34492;DHT22;20737;49.908;8.126;2022-11-25T01:41:35;1.30;99.90
34492;DHT22;20737;49.908;8.126;2022-11-25T01:44:07;1.30;99.90
34492;DHT22;20737;49.908;8.126;2022-11-25T01:46:43;1.30;99.90
34492;DHT22;20737;49.908;8.126;2022-11-25T01:49:13;1.30;99.90
34492;DHT22;20737;49.908;8.126;2022-11-25T01:51:45;1.30;99.90
34492;DHT22;20737;49.908;8.126;2022-11-25T01:54:15;1.20;99.90
34492;DHT22;20737;49.908;8.126;2022-11-25T01:56:47;1.30;99.90
34492;DHT22;20737;49.908;8.126;2022-11-25T01:59:15;1.30;99.90
34492;DHT22;20737;49.908;8.126;2022-11-25T02:01:42;1.40;99.90
34492;DHT22;20737;49.908;8.126;2022-11-25T02:04:10;1.30;99.90
34492;DHT22;20737;49.908;8.126;2022-11-25T02:06:43;1.30;99.90
34492;DHT22;20737;49.908;8.126;2022-11-25T02:09:11;1.40;99.90
34492;DHT22;20737;49.908;8.126;2022-11-25T02:11:39;1.50;99.90
34492;DHT22;20737;49.908;8.126;2022-11-25T02:14:11;1.50;99.90
34492;DHT22;20737;49.908;8.126;2022-11-25T02:16:39;1.50;99.90
34492;DHT22;20737;49.908;8.126;2022-11-25T02:19:12;1.60;99.90
34492;DHT22;20737;49.908;8.126;2022-11-25T02:21:49;1.50;99.90
34492;DHT22;20737;49.908;8.126;2022-11-25T02:24:21;1.50;99.90
34492;DHT22;20737;49.908;8.126;2022-11-25T02:26:53;1.60;99.90
34492;DHT22;20737;49.908;8.126;2022-11-25T02:29:20;1.60;99.90
34492;DHT22;20737;49.908;8.126;2022-11-25T02:31:48;1.60;99.90
34492;DHT22;20737;49.908;8.126;2022-11-25T02:34:14;1.60;99.90
34492;DHT22;20737;49.908;8.126;2022-11-25T02:36:41;1.60;99.90
34492;DHT22;20737;49.908;8.126;2022-11-25T02:39:08;1.60;99.90
34492;DHT22;20737;49.908;8.126;2022-11-25T02:41:37;1.60;99.90
34492;DHT22;20737;49.908;8.126;2022-11-25T02:44:07;1.60;99.90
34492;DHT22;20737;49.908;8.126;2022-11-25T02:46:34;1.70;99.90
34492;DHT22;20737;49.908;8.126;2022-11-25T02:49:01;1.70;99.90
34492;DHT22;20737;49.908;8.126;2022-11-25T02:51:29;1.70;99.90
34492;DHT22;20737;49.908;8.126;2022-11-25T02:53:57;1.80;99.90
34492;DHT22;20737;49.908;8.126;2022-11-25T02:56:26;1.80;99.90
34492;DHT22;20737;49.908;8.126;2022-11-25T02:58:53;1.80;99.90
34492;DHT22;20737;49.908;8.126;2022-11-25T03:01:21;1.80;99.90
34492;DHT22;20737;49.908;8.126;2022-11-25T03:03:48;2.00;99.90
34492;DHT22;20737;49.908;8.126;2022-11-25T03:06:15;2.00;99.90
34492;DHT22;20737;49.908;8.126;2022-11-25T03:08:42;2.10;99.90
34492;DHT22;20737;49.908;8.126;2022-11-25T03:11:08;2.10;99.90
34492;DHT22;20737;49.908;8.126;2022-11-25T03:13:35;2.20;99.90
34492;DHT22;20737;49.908;8.126;2022-11-25T03:16:02;2.20;99.90
34492;DHT22;20737;49.908;8.126;2022-11-25T03:18:31;2.20;99.90
34492;DHT22;20737;49.908;8.126;2022-11-25T03:20:58;2.30;99.90
34492;DHT22;20737;49.908;8.126;2022-11-25T03:23:25;2.30;99.90
34492;DHT22;20737;49.908;8.126;2022-11-25T03:25:51;2.40;99.90
34492;DHT22;20737;49.908;8.126;2022-11-25T03:28:18;2.40;99.90
34492;DHT22;20737;49.908;8.126;2022-11-25T03:30:45;2.50;99.90
34492;DHT22;20737;49.908;8.126;2022-11-25T03:33:12;2.50;99.90
34492;DHT22;20737;49.908;8.126;2022-11-25T03:35:40;2.50;99.90
34492;DHT22;20737;49.908;8.126;2022-11-25T03:38:06;2.50;99.90
34492;DHT22;20737;49.908;8.126;2022-11-25T03:40:33;2.50;99.90
34492;DHT22;20737;49.908;8.126;2022-11-25T03:43:00;2.50;99.90
34492;DHT22;20737;49.908;8.126;2022-11-25T03:45:27;2.60;99.90
34492;DHT22;20737;49.908;8.126;2022-11-25T03:47:53;2.60;99.90
34492;DHT22;20737;49.908;8.126;2022-11-25T03:50:20;2.70;99.90
34492;DHT22;20737;49.908;8.126;2022-11-25T03:52:48;2.70;99.90
34492;DHT22;20737;49.908;8.126;2022-11-25T03:55:15;2.80;99.90
34492;DHT22;20737;49.908;8.126;2022-11-25T03:57:42;2.80;99.90
34492;DHT22;20737;49.908;8.126;2022-11-25T04:00:12;2.80;99.90
34492;DHT22;20737;49.908;8.126;2022-11-25T04:02:39;2.80;99.90
34492;DHT22;20737;49.908;8.126;2022-11-25T04:05:06;2.80;99.90
34492;DHT22;20737;49.908;8.126;2022-11-25T04:07:33;2.80;99.90
34492;DHT22;20737;49.908;8.126;2022-11-25T04:10:01;2.80;99.90
34492;DHT22;20737;49.908;8.126;2022-11-25T04:12:28;2.80;99.90
34492;DHT22;20737;49.908;8.126;2022-11-25T04:15:12;2.70;99.90
34492;DHT22;20737;49.908;8.126;2022-11-25T04:17:39;2.70;99.90
34492;DHT22;20737;49.908;8.126;2022-11-25T04:20:07;2.70;99.90
34492;DHT22;20737;49.908;8.126;2022-11-25T04:22:34;2.70;99.90
34492;DHT22;20737;49.908;8.126;2022-11-25T04:25:03;2.80;99.90
34492;DHT22;20737;49.908;8.126;2022-11-25T04:27:30;2.80;99.90
34492;DHT22;20737;49.908;8.126;2022-11-25T04:29:56;2.80;99.90
34492;DHT22;20737;49.908;8.126;2022-11-25T04:32:23;2.80;99.90
34492;DHT22;20737;49.908;8.126;2022-11-25T04:34:50;2.90;99.90
34492;DHT22;20737;49.908;8.126;2022-11-25T04:37:17;3.00;99.90
34492;DHT22;20737;49.908;8.126;2022-11-25T04:39:43;3.00;99.90
34492;DHT22;20737;49.908;8.126;2022-11-25T04:42:12;3.00;99.90
34492;DHT22;20737;49.908;8.126;2022-11-25T04:44:56;3.20;99.90
34492;DHT22;20737;49.908;8.126;2022-11-25T04:47:23;3.20;99.90
34492;DHT22;20737;49.908;8.126;2022-11-25T04:49:49;3.30;99.90
34492;DHT22;20737;49.908;8.126;2022-11-25T04:52:16;3.40;99.90
34492;DHT22;20737;49.908;8.126;2022-11-25T04:54:43;3.40;99.90
34492;DHT22;20737;49.908;8.126;2022-11-25T04:57:13;3.40;99.90
34492;DHT22;20737;49.908;8.126;2022-11-25T04:59:40;3.40;99.90
34492;DHT22;20737;49.908;8.126;2022-11-25T05:02:12;3.40;99.90
34492;DHT22;20737;49.908;8.126;2022-11-25T05:04:39;3.40;99.90
34492;DHT22;20737;49.908;8.126;2022-11-25T05:07:06;3.40;99.90
34492;DHT22;20737;49.908;8.126;2022-11-25T05:09:33;3.50;99.90
34492;DHT22;20737;49.908;8.126;2022-11-25T05:12:00;3.50;99.90
34492;DHT22;20737;49.908;8.126;2022-11-25T05:14:28;3.50;99.90
34492;DHT22;20737;49.908;8.126;2022-11-25T05:16:55;3.50;99.90
34492;DHT22;20737;49.908;8.126;2022-11-25T05:19:22;3.50;99.90
34492;DHT22;20737;49.908;8.126;2022-11-25T05:21:49;3.50;99.90
34492;DHT22;20737;49.908;8.126;2022-11-25T05:24:16;3.50;99.90
34492;DHT22;20737;49.908;8.126;2022-11-25T05:26:42;3.50;99.90
34492;DHT22;20737;49.908;8.126;2022-11-25T05:29:10;3.50;99.90
34492;DHT22;20737;49.908;8.126;2022-11-25T05:31:38;3.40;99.90
34492;DHT22;20737;49.908;8.126;2022-11-25T05:34:04;3.40;99.90
34492;DHT22;20737;49.908;8.126;2022-11-25T05:36:31;3.40;99.90
34492;DHT22;20737;49.908;8.126;2022-11-25T05:38:59;3.50;99.90
34492;DHT22;20737;49.908;8.126;2022-11-25T05:41:26;3.50;99.90
34492;DHT22;20737;49.908;8.126;2022-11-25T05:43:53;3.50;99.90
34492;DHT22;20737;49.908;8.126;2022-11-25T05:46:20;3.60;99.90
34492;DHT22;20737;49.908;8.126;2022-11-25T05:48:51;3.60;99.90
34492;DHT22;20737;49.908;8.126;2022-11-25T05:51:18;3.60;99.90
34492;DHT22;20737;49.908;8.126;2022-11-25T05:53:45;3.70;99.90
34492;DHT22;20737;49.908;8.126;2022-11-25T05:56:12;3.70;99.90
34492;DHT22;20737;49.908;8.126;2022-11-25T05:58:38;3.70;99.90
34492;DHT22;20737;49.908;8.126;2022-11-25T06:01:06;3.80;99.90
34492;DHT22;20737;49.908;8.126;2022-11-25T06:03:34;3.80;99.90
34492;DHT22;20737;49.908;8.126;2022-11-25T06:06:02;3.80;99.90
34492;DHT22;20737;49.908;8.126;2022-11-25T06:08:29;3.80;99.90
34492;DHT22;20737;49.908;8.126;2022-11-25T06:10:56;3.80;99.90
34492;DHT22;20737;49.908;8.126;2022-11-25T06:13:23;3.90;99.90
34492;DHT22;20737;49.908;8.126;2022-11-25T06:15:50;3.90;99.90
34492;DHT22;20737;49.908;8.126;2022-11-25T06:18:17;4.00;99.90
34492;DHT22;20737;49.908;8.126;2022-11-25T06:20:44;4.00;99.90
34492;DHT22;20737;49.908;8.126;2022-11-25T06:23:12;4.00;99.90
34492;DHT22;20737;49.908;8.126;2022-11-25T06:25:39;4.00;99.90
34492;DHT22;20737;49.908;8.126;2022-11-25T06:28:06;4.10;99.90
34492;DHT22;20737;49.908;8.126;2022-11-25T06:30:32;4.20;99.90
34492;DHT22;20737;49.908;8.126;2022-11-25T06:32:59;4.20;99.90
34492;DHT22;20737;49.908;8.126;2022-11-25T06:35:26;4.20;99.90
34492;DHT22;20737;49.908;8.126;2022-11-25T06:37:52;4.20;99.90
34492;DHT22;20737;49.908;8.126;2022-11-25T06:40:21;4.20;99.90
34492;DHT22;20737;49.908;8.126;2022-11-25T06:42:47;4.30;99.90
34492;DHT22;20737;49.908;8.126;2022-11-25T06:45:14;4.30;99.90
34492;DHT22;20737;49.908;8.126;2022-11-25T06:47:41;4.20;99.90
34492;DHT22;20737;49.908;8.126;2022-11-25T06:50:08;4.20;99.90
34492;DHT22;20737;49.908;8.126;2022-11-25T06:52:35;4.20;99.90
34492;DHT22;20737;49.908;8.126;2022-11-25T06:55:03;4.20;99.90
34492;DHT22;20737;49.908;8.126;2022-11-25T06:57:31;4.20;99.90
34492;DHT22;20737;49.908;8.126;2022-11-25T06:59:58;4.30;99.90
34492;DHT22;20737;49.908;8.126;2022-11-25T07:02:25;4.30;99.90
34492;DHT22;20737;49.908;8.126;2022-11-25T07:04:51;4.30;99.90
34492;DHT22;20737;49.908;8.126;2022-11-25T07:07:18;4.40;99.90
34492;DHT22;20737;49.908;8.126;2022-11-25T07:09:45;4.40;99.90
34492;DHT22;20737;49.908;8.126;2022-11-25T07:12:12;4.40;99.90
34492;DHT22;20737;49.908;8.126;2022-11-25T07:14:41;4.40;99.90
34492;DHT22;20737;49.908;8.126;2022-11-25T07:17:07;4.50;99.90
34492;DHT22;20737;49.908;8.126;2022-11-25T07:19:34;4.40;99.90
34492;DHT22;20737;49.908;8.126;2022-11-25T07:22:01;4.50;99.90
34492;DHT22;20737;49.908;8.126;2022-11-25T07:24:28;4.50;99.90
34492;DHT22;20737;49.908;8.126;2022-11-25T07:26:55;4.50;99.90
34492;DHT22;20737;49.908;8.126;2022-11-25T07:29:22;4.60;99.90
34492;DHT22;20737;49.908;8.126;2022-11-25T07:31:50;4.60;99.90
34492;DHT22;20737;49.908;8.126;2022-11-25T07:34:19;4.70;99.90
34492;DHT22;20737;49.908;8.126;2022-11-25T07:36:47;4.70;99.90
34492;DHT22;20737;49.908;8.126;2022-11-25T07:39:16;4.80;99.90
34492;DHT22;20737;49.908;8.126;2022-11-25T07:41:43;4.80;99.90
34492;DHT22;20737;49.908;8.126;2022-11-25T07:44:12;4.80;99.90
34492;DHT22;20737;49.908;8.126;2022-11-25T07:46:40;4.90;99.90
34492;DHT22;20737;49.908;8.126;2022-11-25T07:49:10;5.00;99.90
34492;DHT22;20737;49.908;8.126;2022-11-25T07:51:39;5.00;99.90
34492;DHT22;20737;49.908;8.126;2022-11-25T07:54:07;5.00;99.90
34492;DHT22;20737;49.908;8.126;2022-11-25T07:56:37;5.00;99.90
34492;DHT22;20737;49.908;8.126;2022-11-25T07:59:04;5.00;99.90
34492;DHT22;20737;49.908;8.126;2022-11-25T08:01:31;5.00;99.90
34492;DHT22;20737;49.908;8.126;2022-11-25T08:03:58;4.90;99.90
34492;DHT22;20737;49.908;8.126;2022-11-25T08:06:27;5.00;99.90
34492;DHT22;20737;49.908;8.126;2022-11-25T08:08:56;5.00;99.90
34492;DHT22;20737;49.908;8.126;2022-11-25T08:11:25;5.10;99.90
34492;DHT22;20737;49.908;8.126;2022-11-25T08:13:52;5.20;99.90
34492;DHT22;20737;49.908;8.126;2022-11-25T08:16:21;5.20;99.90
34492;DHT22;20737;49.908;8.126;2022-11-25T08:18:49;5.30;99.90
34492;DHT22;20737;49.908;8.126;2022-11-25T08:21:16;5.40;99.90
34492;DHT22;20737;49.908;8.126;2022-11-25T08:23:45;5.50;99.90
34492;DHT22;20737;49.908;8.126;2022-11-25T08:26:15;5.60;99.90
34492;DHT22;20737;49.908;8.126;2022-11-25T08:28:42;5.80;99.90
34492;DHT22;20737;49.908;8.126;2022-11-25T08:31:10;6.00;99.90
34492;DHT22;20737;49.908;8.126;2022-11-25T08:33:38;6.20;99.90
34492;DHT22;20737;49.908;8.126;2022-11-25T08:36:06;6.30;99.90
34492;DHT22;20737;49.908;8.126;2022-11-25T08:38:33;6.30;99.90
34492;DHT22;20737;49.908;8.126;2022-11-25T08:41:02;6.30;99.90
34492;DHT22;20737;49.908;8.126;2022-11-25T08:43:28;6.30;99.90
34492;DHT22;20737;49.908;8.126;2022-11-25T08:45:55;6.40;99.90
34492;DHT22;20737;49.908;8.126;2022-11-25T08:48:22;6.50;99.90
34492;DHT22;20737;49.908;8.126;2022-11-25T08:50:51;6.50;99.90
34492;DHT22;20737;49.908;8.126;2022-11-25T08:53:19;6.50;99.90
34492;DHT22;20737;49.908;8.126;2022-11-25T08:55:46;6.60;99.90
34492;DHT22;20737;49.908;8.126;2022-11-25T08:58:15;6.70;99.90
34492;DHT22;20737;49.908;8.126;2022-11-25T09:00:43;6.80;99.90
34492;DHT22;20737;49.908;8.126;2022-11-25T09:03:10;7.00;99.90
34492;DHT22;20737;49.908;8.126;2022-11-25T09:05:39;7.10;99.90
34492;DHT22;20737;49.908;8.126;2022-11-25T09:08:07;7.20;99.90
34492;DHT22;20737;49.908;8.126;2022-11-25T09:10:34;7.30;99.90
34492;DHT22;20737;49.908;8.126;2022-11-25T09:13:02;7.30;99.90
34492;DHT22;20737;49.908;8.126;2022-11-25T09:15:30;7.20;99.90
34492;DHT22;20737;49.908;8.126;2022-11-25T09:17:58;7.10;99.90
34492;DHT22;20737;49.908;8.126;2022-11-25T09:20:26;7.30;99.90
34492;DHT22;20737;49.908;8.126;2022-11-25T09:22:52;7.40;99.90
34492;DHT22;20737;49.908;8.126;2022-11-25T09:25:20;7.60;99.90
34492;DHT22;20737;49.908;8.126;2022-11-25T09:27:47;7.70;99.90
34492;DHT22;20737;49.908;8.126;2022-11-25T09:30:14;7.80;99.90
34492;DHT22;20737;49.908;8.126;2022-11-25T09:32:42;7.70;99.90
34492;DHT22;20737;49.908;8.126;2022-11-25T09:35:09;7.90;99.90
34492;DHT22;20737;49.908;8.126;2022-11-25T09:37:36;8.00;99.90
34492;DHT22;20737;49.908;8.126;2022-11-25T09:40:05;8.20;99.90
34492;DHT22;20737;49.908;8.126;2022-11-25T09:42:39;8.40;99.90
34492;DHT22;20737;49.908;8.126;2022-11-25T09:45:33;8.30;99.90
34492;DHT22;20737;49.908;8.126;2022-11-25T09:48:36;8.20;99.90
34492;DHT22;20737;49.908;8.126;2022-11-25T09:51:18;8.40;99.90
34492;DHT22;20737;49.908;8.126;2022-11-25T09:53:49;9.10;99.90
34492;DHT22;20737;49.908;8.126;2022-11-25T09:56:27;9.50;99.90
34492;DHT22;20737;49.908;8.126;2022-11-25T09:58:58;11.40;99.90
34492;DHT22;20737;49.908;8.126;2022-11-25T10:01:28;13.30;99.90
34492;DHT22;20737;49.908;8.126;2022-11-25T10:04:00;14.60;99.90
34492;DHT22;20737;49.908;8.126;2022-11-25T10:06:29;15.60;99.90
34492;DHT22;20737;49.908;8.126;2022-11-25T10:08:58;15.40;99.90
34492;DHT22;20737;49.908;8.126;2022-11-25T10:11:35;14.30;99.90
34492;DHT22;20737;49.908;8.126;2022-11-25T10:14:09;12.80;99.90
34492;DHT22;20737;49.908;8.126;2022-11-25T10:16:44;11.70;99.90
34492;DHT22;20737;49.908;8.126;2022-11-25T10:19:22;10.90;99.90
34492;DHT22;20737;49.908;8.126;2022-11-25T10:21:50;10.30;99.90
34492;DHT22;20737;49.908;8.126;2022-11-25T10:24:18;9.90;99.90
34492;DHT22;20737;49.908;8.126;2022-11-25T10:26:50;9.60;99.90
34492;DHT22;20737;49.908;8.126;2022-11-25T10:29:24;9.80;99.90
34492;DHT22;20737;49.908;8.126;2022-11-25T10:32:01;9.80;99.90
34492;DHT22;20737;49.908;8.126;2022-11-25T10:34:39;9.50;99.90
34492;DHT22;20737;49.908;8.126;2022-11-25T10:37:12;9.70;99.90
34492;DHT22;20737;49.908;8.126;2022-11-25T10:39:41;10.00;99.90
34492;DHT22;20737;49.908;8.126;2022-11-25T10:42:14;10.50;99.90
34492;DHT22;20737;49.908;8.126;2022-11-25T10:44:43;11.00;99.90
34492;DHT22;20737;49.908;8.126;2022-11-25T10:47:35;11.30;99.90
34492;DHT22;20737;49.908;8.126;2022-11-25T10:50:19;11.40;99.90
34492;DHT22;20737;49.908;8.126;2022-11-25T10:52:50;11.10;99.90
34492;DHT22;20737;49.908;8.126;2022-11-25T10:55:23;11.00;99.90
34492;DHT22;20737;49.908;8.126;2022-11-25T10:57:50;11.10;99.90
34492;DHT22;20737;49.908;8.126;2022-11-25T11:00:26;10.90;99.90
34492;DHT22;20737;49.908;8.126;2022-11-25T11:02:55;10.70;99.90
34492;DHT22;20737;49.908;8.126;2022-11-25T11:05:25;10.20;99.90
34492;DHT22;20737;49.908;8.126;2022-11-25T11:08:12;10.00;99.90
34492;DHT22;20737;49.908;8.126;2022-11-25T11:10:40;9.80;99.90
34492;DHT22;20737;49.908;8.126;2022-11-25T11:13:20;9.70;99.90
34492;DHT22;20737;49.908;8.126;2022-11-25T11:15:49;9.70;99.90
34492;DHT22;20737;49.908;8.126;2022-11-25T11:18:24;9.70;99.90
34492;DHT22;20737;49.908;8.126;2022-11-25T11:20:54;9.60;99.90
34492;DHT22;20737;49.908;8.126;2022-11-25T11:23:21;9.60;99.90
34492;DHT22;20737;49.908;8.126;2022-11-25T11:25:58;10.10;99.90
34492;DHT22;20737;49.908;8.126;2022-11-25T11:28:27;11.60;99.90
34492;DHT22;20737;49.908;8.126;2022-11-25T11:31:00;13.70;99.90
34492;DHT22;20737;49.908;8.126;2022-11-25T11:33:33;15.50;99.90
34492;DHT22;20737;49.908;8.126;2022-11-25T11:36:05;15.40;99.90
34492;DHT22;20737;49.908;8.126;2022-11-25T11:38:38;14.60;99.90
34492;DHT22;20737;49.908;8.126;2022-11-25T11:41:16;13.60;99.90
34492;DHT22;20737;49.908;8.126;2022-11-25T11:43:57;12.50;99.90
34492;DHT22;20737;49.908;8.126;2022-11-25T11:46:33;11.60;99.90
34492;DHT22;20737;49.908;8.126;2022-11-25T11:49:14;11.00;99.90
34492;DHT22;20737;49.908;8.126;2022-11-25T11:51:51;10.70;99.90
34492;DHT22;20737;49.908;8.126;2022-11-25T11:54:25;10.60;99.90
34492;DHT22;20737;49.908;8.126;2022-11-25T11:56:58;10.50;99.90
34492;DHT22;20737;49.908;8.126;2022-11-25T11:59:46;10.40;99.90
34492;DHT22;20737;49.908;8.126;2022-11-25T12:02:28;10.40;99.90
34492;DHT22;20737;49.908;8.126;2022-11-25T12:05:03;10.30;99.90
34492;DHT22;20737;49.908;8.126;2022-11-25T12:07:35;10.20;99.90
34492;DHT22;20737;49.908;8.126;2022-11-25T12:10:09;10.30;99.90
34492;DHT22;20737;49.908;8.126;2022-11-25T12:12:44;10.30;99.90
34492;DHT22;20737;49.908;8.126;2022-11-25T12:15:16;10.30;99.90
34492;DHT22;20737;49.908;8.126;2022-11-25T12:17:49;10.60;99.90
34492;DHT22;20737;49.908;8.126;2022-11-25T12:20:25;10.80;99.90
34492;DHT22;20737;49.908;8.126;2022-11-25T12:22:59;11.30;99.90
34492;DHT22;20737;49.908;8.126;2022-11-25T12:25:33;11.90;99.90
34492;DHT22;20737;49.908;8.126;2022-11-25T12:28:03;13.10;99.90
34492;DHT22;20737;49.908;8.126;2022-11-25T12:30:36;14.40;99.90
34492;DHT22;20737;49.908;8.126;2022-11-25T12:33:11;14.60;99.90
34492;DHT22;20737;49.908;8.126;2022-11-25T12:35:45;14.30;99.90
34492;DHT22;20737;49.908;8.126;2022-11-25T12:38:21;14.10;99.90
34492;DHT22;20737;49.908;8.126;2022-11-25T12:40:54;13.40;99.90
34492;DHT22;20737;49.908;8.126;2022-11-25T12:43:31;13.00;99.90
34492;DHT22;20737;49.908;8.126;2022-11-25T12:46:09;12.90;99.90
34492;DHT22;20737;49.908;8.126;2022-11-25T12:48:39;12.70;99.90
34492;DHT22;20737;49.908;8.126;2022-11-25T12:51:18;12.90;99.90
34492;DHT22;20737;49.908;8.126;2022-11-25T12:54:00;13.20;99.90
34492;DHT22;20737;49.908;8.126;2022-11-25T12:56:47;14.20;99.90
34492;DHT22;20737;49.908;8.126;2022-11-25T12:59:38;15.60;99.90
34492;DHT22;20737;49.908;8.126;2022-11-25T13:02:22;16.70;99.90
34492;DHT22;20737;49.908;8.126;2022-11-25T13:05:17;17.00;99.90
34492;DHT22;20737;49.908;8.126;2022-11-25T13:07:54;16.90;99.90
34492;DHT22;20737;49.908;8.126;2022-11-25T13:10:35;15.80;99.90
34492;DHT22;20737;49.908;8.126;2022-11-25T13:13:30;15.20;99.90
34492;DHT22;20737;49.908;8.126;2022-11-25T13:15:59;15.10;99.90
34492;DHT22;20737;49.908;8.126;2022-11-25T13:18:30;14.20;99.90
34492;DHT22;20737;49.908;8.126;2022-11-25T13:21:05;13.50;99.90
34492;DHT22;20737;49.908;8.126;2022-11-25T13:23:44;12.80;99.90
34492;DHT22;20737;49.908;8.126;2022-11-25T13:26:36;12.20;99.90
34492;DHT22;20737;49.908;8.126;2022-11-25T13:32:27;11.50;99.90
34492;DHT22;20737;49.908;8.126;2022-11-25T13:38:36;11.40;99.90
34492;DHT22;20737;49.908;8.126;2022-11-25T13:41:21;11.40;99.90
34492;DHT22;20737;49.908;8.126;2022-11-25T13:43:55;11.30;99.90
34492;DHT22;20737;49.908;8.126;2022-11-25T13:46:36;11.10;99.90
34492;DHT22;20737;49.908;8.126;2022-11-25T13:49:04;11.00;99.90
34492;DHT22;20737;49.908;8.126;2022-11-25T13:51:32;10.90;99.90
34492;DHT22;20737;49.908;8.126;2022-11-25T13:54:00;10.90;99.90
34492;DHT22;20737;49.908;8.126;2022-11-25T13:56:32;10.90;99.90
34492;DHT22;20737;49.908;8.126;2022-11-25T13:59:29;10.80;99.90
34492;DHT22;20737;49.908;8.126;2022-11-25T14:05:39;10.70;99.90
34492;DHT22;20737;49.908;8.126;2022-11-25T14:08:18;10.60;99.90
34492;DHT22;20737;49.908;8.126;2022-11-25T14:10:54;10.50;99.90
34492;DHT22;20737;49.908;8.126;2022-11-25T14:16:29;10.50;99.90
34492;DHT22;20737;49.908;8.126;2022-11-25T14:22:17;10.40;99.90
34492;DHT22;20737;49.908;8.126;2022-11-25T14:24:48;10.40;99.90
34492;DHT22;20737;49.908;8.126;2022-11-25T14:27:18;10.40;99.90
34492;DHT22;20737;49.908;8.126;2022-11-25T14:29:49;10.50;99.90
34492;DHT22;20737;49.908;8.126;2022-11-25T14:32:21;10.60;99.90
34492;DHT22;20737;49.908;8.126;2022-11-25T14:34:53;10.50;99.90
34492;DHT22;20737;49.908;8.126;2022-11-25T14:37:26;10.60;99.90
34492;DHT22;20737;49.908;8.126;2022-11-25T14:39:59;10.50;99.90
34492;DHT22;20737;49.908;8.126;2022-11-25T14:42:32;10.40;99.90
34492;DHT22;20737;49.908;8.126;2022-11-25T14:45:00;10.30;99.90
34492;DHT22;20737;49.908;8.126;2022-11-25T14:47:31;10.20;99.90
34492;DHT22;20737;49.908;8.126;2022-11-25T14:49:58;10.00;99.90
34492;DHT22;20737;49.908;8.126;2022-11-25T14:52:27;9.90;99.90
34492;DHT22;20737;49.908;8.126;2022-11-25T14:54:55;9.70;99.90
34492;DHT22;20737;49.908;8.126;2022-11-25T14:57:26;9.60;99.90
34492;DHT22;20737;49.908;8.126;2022-11-25T14:59:55;9.50;99.90
34492;DHT22;20737;49.908;8.126;2022-11-25T15:02:24;9.40;99.90
34492;DHT22;20737;49.908;8.126;2022-11-25T15:05:00;9.30;99.90
34492;DHT22;20737;49.908;8.126;2022-11-25T15:07:28;9.30;99.90
34492;DHT22;20737;49.908;8.126;2022-11-25T15:09:55;9.30;99.90
34492;DHT22;20737;49.908;8.126;2022-11-25T15:12:23;9.20;99.90
34492;DHT22;20737;49.908;8.126;2022-11-25T15:14:54;9.20;99.90
34492;DHT22;20737;49.908;8.126;2022-11-25T15:17:25;9.20;99.90
34492;DHT22;20737;49.908;8.126;2022-11-25T15:19:54;9.10;99.90
34492;DHT22;20737;49.908;8.126;2022-11-25T15:22:22;9.00;99.90
34492;DHT22;20737;49.908;8.126;2022-11-25T15:24:50;8.80;99.90
34492;DHT22;20737;49.908;8.126;2022-11-25T15:27:18;8.70;99.90
34492;DHT22;20737;49.908;8.126;2022-11-25T15:29:47;8.60;99.90
34492;DHT22;20737;49.908;8.126;2022-11-25T15:32:17;8.50;99.90
34492;DHT22;20737;49.908;8.126;2022-11-25T15:34:45;8.60;99.90
34492;DHT22;20737;49.908;8.126;2022-11-25T15:37:14;8.50;99.90
34492;DHT22;20737;49.908;8.126;2022-11-25T15:39:41;8.50;99.90
34492;DHT22;20737;49.908;8.126;2022-11-25T15:42:15;8.40;99.90
34492;DHT22;20737;49.908;8.126;2022-11-25T15:44:47;8.40;99.90
34492;DHT22;20737;49.908;8.126;2022-11-25T15:47:19;8.30;99.90
34492;DHT22;20737;49.908;8.126;2022-11-25T15:49:49;8.20;99.90
34492;DHT22;20737;49.908;8.126;2022-11-25T15:52:22;8.20;99.90
34492;DHT22;20737;49.908;8.126;2022-11-25T15:54:50;8.20;99.90
34492;DHT22;20737;49.908;8.126;2022-11-25T15:57:19;8.20;99.90
34492;DHT22;20737;49.908;8.126;2022-11-25T15:59:49;8.20;99.90
34492;DHT22;20737;49.908;8.126;2022-11-25T16:02:35;8.20;99.90
34492;DHT22;20737;49.908;8.126;2022-11-25T16:05:31;8.10;99.90
34492;DHT22;20737;49.908;8.126;2022-11-25T16:08:32;8.10;99.90
34492;DHT22;20737;49.908;8.126;2022-11-25T16:11:10;8.00;99.90
34492;DHT22;20737;49.908;8.126;2022-11-25T16:13:40;7.90;99.90
34492;DHT22;20737;49.908;8.126;2022-11-25T16:16:14;7.80;99.90
34492;DHT22;20737;49.908;8.126;2022-11-25T16:18:46;7.80;99.90